Accueil
METAR-TAF:

METAR-TAF

Aéroports :

Aéroport de Ghriss

Ghriss, Algérie

latitude: 35-12N, longitude: 000-08E, altitude: 514 m

Observation

Le bulletin a été fait il y a 41 minutes, à 08:00 UTC
Vent 3 kt de ouest
Température 27°C
Humidité 34%
Pression 1016 hPa
Visibilité: 8000 m
Nuages épars à une hauteur de 3000 ft

METAR: DAOV 290800Z 27003KT 8000 SCT030 27/10 Q1016

Heure: 09:41 (08:41 UTC)

Prévision

Le bulletin a été fait il y a 3 heures et 41 minutes, à 05:00 UTC
Prévision valable du 29 à 06 UTC au 29 à 15 UTC
Vent 2 kt de direction variable
Visibilité: 8000 m
Nuages fragmentés à une hauteur de 3000 ft
Probabilité 40% :
Temporairement
du 29 à 08 UTC au 29 à 12 UTC
pluie

TAF: DAOV 290500Z 2906/2915 VRB02KT 8000 BKN030 PROB40 TEMPO 2908/2912 RA

Observations et prévisions météorologiques de plus de 4000 aéroports (messages METAR et TAF).

Les stations disponibles sont représentées par des disques jaunes et rouges sur la carte.

Passer la souris dessus pour voir le nom de la station.

Cliquer dessus pour voir les observations et prévisions météorologiques.

Pour changer de carte: cliquez sur les boutons verts avec une croix noire pour zoomer, sur le bouton vert avec un tiret pour effectuer un zoom arrière, ou sur les flèches vertes pour les cartes adjacentes.


METAR-TAF: